Time;durP1;ratioP1;P1;durP2;ratioP2;P2;SDS_P1;SDS_P2;PMS_P1;PMS_P2;Temp;Humidity;BMP_temperature;BMP_pressure;BME280_temperature;BME280_humidity;BME280_pressure;Samples;Min_cycle;Max_cycle;Signal;HPM_P1;HPM_P2
2022/12/08 00:01:53;;;;;;;29.97;18.77;;;5.80;99.90;;;;;;5015104;28;20657;-76
2022/12/08 00:04:21;;;;;;;33.20;18.47;;;5.70;99.90;;;;;;5014340;28;20169;-76
2022/12/08 00:09:36;;;;;;;32.60;19.13;;;5.50;99.90;;;;;;5014195;28;20255;-76
2022/12/08 00:12:06;;;;;;;29.30;18.37;;;5.50;99.90;;;;;;5013882;28;20223;-75
2022/12/08 00:14:35;;;;;;;32.23;20.60;;;5.60;99.90;;;;;;5014114;28;20688;-75
2022/12/08 00:17:02;;;;;;;31.30;18.60;;;5.60;99.90;;;;;;5013823;28;20228;-75
2022/12/08 00:19:28;;;;;;;30.73;18.30;;;5.60;99.90;;;;;;5015276;28;20585;-75
2022/12/08 00:21:54;;;;;;;33.57;19.23;;;5.40;99.90;;;;;;5015267;28;20177;-76
2022/12/08 00:24:21;;;;;;;29.70;19.17;;;5.40;99.90;;;;;;5014074;28;20180;-75
2022/12/08 00:26:47;;;;;;;34.83;19.60;;;5.60;99.90;;;;;;5013180;28;20195;-75
2022/12/08 00:29:13;;;;;;;29.43;18.70;;;5.60;99.90;;;;;;5015041;28;20364;-75
2022/12/08 00:31:40;;;;;;;33.23;20.20;;;5.60;99.90;;;;;;5014913;28;20165;-75
2022/12/08 00:34:06;;;;;;;37.20;19.93;;;5.50;99.90;;;;;;5015120;28;20189;-76
2022/12/08 00:36:32;;;;;;;31.30;18.03;;;5.30;99.90;;;;;;5014876;28;20260;-75
2022/12/08 00:38:57;;;;;;;31.97;17.60;;;5.20;99.90;;;;;;5015000;28;20157;-74
2022/12/08 00:44:13;;;;;;;33.13;19.40;;;5.20;99.90;;;;;;5014849;28;20192;-74
2022/12/08 00:46:39;;;;;;;31.43;18.80;;;5.30;99.90;;;;;;5014633;28;20638;-74
2022/12/08 00:49:05;;;;;;;31.93;19.23;;;5.30;99.90;;;;;;5014744;28;20266;-75
2022/12/08 00:51:32;;;;;;;32.10;18.63;;;5.30;99.90;;;;;;5014891;28;20252;-75
2022/12/08 00:53:57;;;;;;;34.10;19.17;;;5.30;99.90;;;;;;5014550;28;20161;-75
2022/12/08 00:56:23;;;;;;;37.93;20.17;;;5.30;99.90;;;;;;5014725;28;20162;-75
2022/12/08 00:58:49;;;;;;;30.83;19.20;;;5.00;99.90;;;;;;5014356;28;20192;-75
2022/12/08 01:01:15;;;;;;;33.10;20.13;;;5.00;99.90;;;;;;5014375;28;20157;-75
2022/12/08 01:03:41;;;;;;;30.20;18.73;;;5.10;99.90;;;;;;5014424;28;20570;-76
2022/12/08 01:06:07;;;;;;;31.50;18.77;;;5.00;99.90;;;;;;5013278;28;20196;-75
2022/12/08 01:08:34;;;;;;;30.70;19.20;;;5.00;99.90;;;;;;5014409;28;20176;-75
2022/12/08 01:11:04;;;;;;;37.97;20.20;;;5.00;99.90;;;;;;5014287;28;20565;-75
2022/12/08 01:13:30;;;;;;;35.63;19.93;;;4.90;99.90;;;;;;5012846;28;20669;-75
2022/12/08 01:15:56;;;;;;;31.67;19.30;;;5.00;99.90;;;;;;5012460;28;20170;-75
2022/12/08 01:18:21;;;;;;;33.57;19.37;;;4.90;99.90;;;;;;5013128;28;20165;-75
2022/12/08 01:20:47;;;;;;;30.17;19.77;;;4.90;99.90;;;;;;5013946;28;20170;-74
2022/12/08 01:23:12;;;;;;;34.70;21.27;;;4.80;99.90;;;;;;5014088;28;20261;-74
2022/12/08 01:25:38;;;;;;;33.20;19.73;;;4.90;99.90;;;;;;5013861;28;20208;-74
2022/12/08 01:28:04;;;;;;;29.23;18.60;;;5.00;99.90;;;;;;5012581;28;20173;-75
2022/12/08 01:30:30;;;;;;;35.23;19.63;;;4.90;99.90;;;;;;5014112;28;20204;-75
2022/12/08 01:32:56;;;;;;;36.60;20.47;;;5.00;99.90;;;;;;5014093;28;20173;-76
2022/12/08 01:35:22;;;;;;;30.43;18.87;;;5.00;99.90;;;;;;5014120;28;20288;-75
2022/12/08 01:37:49;;;;;;;32.47;19.80;;;4.60;99.90;;;;;;5012672;28;20192;-75
2022/12/08 01:40:14;;;;;;;33.20;19.63;;;4.60;99.90;;;;;;5013785;28;20700;-75
2022/12/08 01:42:40;;;;;;;33.30;19.57;;;4.80;99.90;;;;;;5012617;28;20216;-75
2022/12/08 01:45:13;;;;;;;32.27;20.03;;;4.90;99.90;;;;;;5012121;28;20535;-74
2022/12/08 01:47:46;;;;;;;32.77;20.20;;;4.70;99.90;;;;;;5012002;28;20169;-74
2022/12/08 01:50:15;;;;;;;34.90;19.13;;;4.80;99.90;;;;;;5012985;28;20239;-74
2022/12/08 01:52:48;;;;;;;34.13;20.57;;;4.70;99.90;;;;;;5013645;28;20171;-74
2022/12/08 01:55:23;;;;;;;36.00;20.97;;;4.60;99.90;;;;;;5013266;28;20173;-74
2022/12/08 01:57:54;;;;;;;34.80;19.73;;;4.70;99.90;;;;;;5012436;28;20627;-74
2022/12/08 02:00:21;;;;;;;35.43;20.07;;;4.30;99.90;;;;;;5013492;28;20173;-74
2022/12/08 02:03:03;;;;;;;38.67;20.10;;;4.40;99.90;;;;;;5012412;28;20173;-74
2022/12/08 02:05:35;;;;;;;37.43;19.67;;;4.20;99.90;;;;;;5012069;28;20510;-74
2022/12/08 02:08:05;;;;;;;37.27;21.33;;;4.20;99.90;;;;;;5011925;28;20177;-74
2022/12/08 02:10:34;;;;;;;34.60;20.10;;;4.00;99.90;;;;;;4993519;28;20297;-74
2022/12/08 02:13:01;;;;;;;39.90;21.47;;;4.00;99.90;;;;;;4993529;28;20193;-74
2022/12/08 02:16:01;;;;;;;39.90;21.47;;;3.90;99.90;;;;;;4993667;28;20213;-74
2022/12/08 02:18:38;;;;;;;41.10;21.60;;;4.00;99.90;;;;;;4993536;28;20198;-74
2022/12/08 02:21:22;;;;;;;42.17;23.73;;;4.10;99.90;;;;;;4993614;28;20639;-74
2022/12/08 02:24:30;;;;;;;42.87;22.23;;;4.20;99.90;;;;;;5003572;28;20173;-74
2022/12/08 02:27:19;;;;;;;41.17;21.20;;;4.40;99.90;;;;;;5009871;28;20645;-74
2022/12/08 02:29:52;;;;;;;35.50;20.57;;;4.10;99.90;;;;;;5010155;28;20577;-74
2022/12/08 02:32:44;;;;;;;39.50;22.33;;;4.10;99.90;;;;;;5012330;28;20201;-74
2022/12/08 02:35:30;;;;;;;37.50;21.20;;;4.10;99.90;;;;;;5011809;28;20207;-74
2022/12/08 02:38:14;;;;;;;38.93;21.87;;;4.20;99.90;;;;;;5012944;28;20527;-74
2022/12/08 02:41:04;;;;;;;38.23;22.33;;;4.10;99.90;;;;;;5012629;28;20420;-74
2022/12/08 02:44:09;;;;;;;38.77;23.20;;;4.10;99.90;;;;;;5011303;28;20199;-76
2022/12/08 02:46:41;;;;;;;39.47;19.57;;;4.10;99.90;;;;;;5012861;28;20239;-74
2022/12/08 02:49:08;;;;;;;37.63;21.43;;;4.10;99.90;;;;;;5012691;28;20201;-73
2022/12/08 02:51:33;;;;;;;35.43;21.57;;;4.10;99.90;;;;;;5012161;28;20243;-74
2022/12/08 02:54:01;;;;;;;41.63;23.13;;;4.00;99.90;;;;;;5012496;28;20251;-73
2022/12/08 02:57:06;;;;;;;42.27;22.70;;;4.20;99.90;;;;;;5012468;28;20220;-74
2022/12/08 03:00:07;;;;;;;41.77;21.77;;;4.20;99.90;;;;;;5010911;28;20177;-74
2022/12/08 03:03:04;;;;;;;39.33;22.60;;;4.10;99.90;;;;;;5012568;28;20172;-74
2022/12/08 03:05:56;;;;;;;37.53;21.63;;;4.10;99.90;;;;;;5012678;28;20162;-74
2022/12/08 03:08:49;;;;;;;40.47;22.87;;;4.00;99.90;;;;;;5012307;28;20204;-74
2022/12/08 03:11:20;;;;;;;36.70;22.77;;;4.20;99.90;;;;;;5010889;28;20209;-74
2022/12/08 03:13:51;;;;;;;43.10;24.00;;;4.20;99.90;;;;;;5011344;28;20199;-74
2022/12/08 03:16:26;;;;;;;37.43;21.77;;;4.10;99.90;;;;;;5012385;28;20165;-74
2022/12/08 03:19:16;;;;;;;40.40;22.77;;;4.10;99.90;;;;;;5011311;28;20168;-74
2022/12/08 03:21:44;;;;;;;42.80;23.77;;;4.20;99.90;;;;;;5012259;28;20248;-74
2022/12/08 03:24:11;;;;;;;38.60;23.40;;;4.30;99.90;;;;;;5012575;28;20199;-74
2022/12/08 03:26:49;;;;;;;41.23;22.97;;;4.30;99.90;;;;;;5011576;28;20211;-74
2022/12/08 03:29:15;;;;;;;41.60;21.33;;;4.20;99.90;;;;;;5010677;28;20197;-74
2022/12/08 03:31:48;;;;;;;34.67;21.30;;;4.20;99.90;;;;;;5011937;28;20177;-73
2022/12/08 03:34:15;;;;;;;40.53;22.73;;;4.20;99.90;;;;;;5012236;28;20174;-73
2022/12/08 03:36:42;;;;;;;39.10;23.43;;;4.30;99.90;;;;;;5010653;28;20170;-74
2022/12/08 03:39:07;;;;;;;46.30;24.37;;;4.40;99.90;;;;;;5011833;28;20228;-73
2022/12/08 03:41:34;;;;;;;43.53;23.70;;;4.50;99.90;;;;;;5011843;28;20177;-72
2022/12/08 03:44:00;;;;;;;45.70;23.80;;;4.40;99.90;;;;;;5013853;28;20241;-73
2022/12/08 03:46:28;;;;;;;35.63;22.13;;;4.40;99.90;;;;;;5015489;28;20308;-72
2022/12/08 03:48:54;;;;;;;41.33;23.30;;;4.60;99.90;;;;;;5015720;28;20200;-73
2022/12/08 03:51:20;;;;;;;43.63;22.83;;;4.60;99.90;;;;;;5015467;28;20573;-73
2022/12/08 03:53:46;;;;;;;43.63;23.67;;;4.60;99.90;;;;;;5015047;28;20181;-73
2022/12/08 03:56:32;;;;;;;38.90;23.33;;;4.50;99.90;;;;;;5015478;28;20201;-73
2022/12/08 03:58:59;;;;;;;36.93;20.50;;;4.50;99.90;;;;;;5015553;28;20533;-74
2022/12/08 04:01:25;;;;;;;41.00;21.87;;;4.30;99.90;;;;;;5014039;28;20161;-73
2022/12/08 04:03:51;;;;;;;39.10;23.13;;;4.50;99.90;;;;;;5015253;28;20186;-74
2022/12/08 04:06:17;;;;;;;34.80;19.67;;;4.60;99.90;;;;;;5015195;28;20232;-74
2022/12/08 04:08:43;;;;;;;41.53;21.87;;;4.40;99.90;;;;;;5014936;28;20180;-73
2022/12/08 04:11:10;;;;;;;40.87;21.47;;;4.50;99.90;;;;;;5013881;28;20579;-74
2022/12/08 04:13:39;;;;;;;36.73;22.00;;;4.40;99.90;;;;;;5013695;28;20173;-73
2022/12/08 04:16:05;;;;;;;40.20;21.27;;;4.40;99.90;;;;;;5015236;28;20161;-74
2022/12/08 04:18:33;;;;;;;38.60;23.03;;;4.40;99.90;;;;;;5015043;28;20184;-74
2022/12/08 04:20:58;;;;;;;38.27;21.53;;;4.60;99.90;;;;;;5015064;28;20227;-74
2022/12/08 04:23:24;;;;;;;34.33;20.70;;;4.40;99.90;;;;;;5013249;28;20720;-74
2022/12/08 04:25:51;;;;;;;42.13;21.80;;;4.30;99.90;;;;;;5014811;28;20260;-75
2022/12/08 04:28:16;;;;;;;34.33;21.87;;;4.50;99.90;;;;;;5014770;28;20169;-73
2022/12/08 04:30:42;;;;;;;37.63;22.63;;;4.40;99.90;;;;;;5013594;28;20188;-74
2022/12/08 04:33:08;;;;;;;35.03;20.37;;;4.30;99.90;;;;;;5014467;28;20627;-74
2022/12/08 04:35:33;;;;;;;37.63;20.27;;;4.00;99.90;;;;;;5014714;28;20555;-74
2022/12/08 04:37:59;;;;;;;35.90;21.23;;;4.10;99.90;;;;;;5014573;28;20165;-75
2022/12/08 04:40:25;;;;;;;34.07;19.97;;;4.40;99.90;;;;;;5014589;28;20188;-74
2022/12/08 04:42:52;;;;;;;40.27;20.00;;;4.20;99.90;;;;;;5013040;28;20187;-74
2022/12/08 04:45:18;;;;;;;34.17;17.63;;;4.40;99.90;;;;;;5014601;28;20653;-74
2022/12/08 04:47:44;;;;;;;34.43;18.63;;;4.50;99.90;;;;;;5013048;28;20252;-74
2022/12/08 04:50:10;;;;;;;31.50;19.43;;;4.30;99.90;;;;;;5013089;28;20532;-74
2022/12/08 04:52:36;;;;;;;29.80;16.87;;;4.40;99.90;;;;;;5014267;28;20180;-74
2022/12/08 04:55:01;;;;;;;28.47;17.50;;;4.30;99.90;;;;;;5013955;28;20170;-73
2022/12/08 04:57:27;;;;;;;28.93;18.40;;;4.30;99.90;;;;;;5014312;28;20173;-74
2022/12/08 04:59:52;;;;;;;31.57;19.17;;;4.30;99.90;;;;;;5014393;28;20176;-74
2022/12/08 05:02:19;;;;;;;31.53;19.37;;;4.30;99.90;;;;;;5013694;28;20177;-73
2022/12/08 05:04:45;;;;;;;35.10;18.67;;;4.50;99.90;;;;;;5014274;28;20208;-73
2022/12/08 05:07:10;;;;;;;32.13;19.47;;;4.40;99.90;;;;;;5013880;28;20252;-74
2022/12/08 05:09:36;;;;;;;34.10;18.97;;;4.40;99.90;;;;;;5012819;28;20694;-74
2022/12/08 05:12:02;;;;;;;33.53;18.33;;;4.40;99.90;;;;;;5012881;28;20169;-74
2022/12/08 05:14:27;;;;;;;32.07;17.70;;;4.30;99.90;;;;;;5012712;28;20173;-74
2022/12/08 05:16:53;;;;;;;32.33;18.50;;;4.30;99.90;;;;;;5013703;28;20161;-73
2022/12/08 05:19:18;;;;;;;36.87;17.93;;;4.10;99.90;;;;;;5013780;28;20578;-73
2022/12/08 05:21:44;;;;;;;34.97;18.77;;;4.00;99.90;;;;;;5013695;28;20173;-74
2022/12/08 05:24:10;;;;;;;32.30;17.30;;;4.00;99.90;;;;;;5013945;28;20605;-74
2022/12/08 05:26:35;;;;;;;27.07;15.90;;;4.00;99.90;;;;;;5013975;28;20267;-75
2022/12/08 05:29:01;;;;;;;31.17;17.27;;;4.00;99.90;;;;;;5013769;28;20197;-75
2022/12/08 05:31:26;;;;;;;29.60;17.20;;;4.20;99.90;;;;;;5013401;28;20181;-75
2022/12/08 05:33:52;;;;;;;32.00;17.47;;;4.30;99.90;;;;;;5013534;28;20203;-75
2022/12/08 05:36:18;;;;;;;27.83;15.57;;;4.50;99.90;;;;;;5013372;28;20176;-74
2022/12/08 05:38:45;;;;;;;23.90;16.37;;;4.30;99.90;;;;;;5013642;28;20180;-74
2022/12/08 05:41:14;;;;;;;28.97;15.50;;;4.40;99.90;;;;;;5012079;28;20311;-75
2022/12/08 05:43:40;;;;;;;27.23;15.47;;;4.30;99.90;;;;;;5013361;28;20182;-75
2022/12/08 05:46:07;;;;;;;26.87;16.10;;;4.10;99.90;;;;;;5013427;28;20178;-75
2022/12/08 05:48:34;;;;;;;27.97;15.63;;;4.00;99.90;;;;;;5013440;28;20219;-75
2022/12/08 05:51:02;;;;;;;29.70;16.80;;;4.20;99.90;;;;;;5013425;28;20523;-75
2022/12/08 05:53:28;;;;;;;28.07;15.20;;;4.20;99.90;;;;;;5013315;28;20283;-75
2022/12/08 05:55:54;;;;;;;26.47;14.97;;;4.10;99.90;;;;;;5013506;28;20192;-75
2022/12/08 05:58:22;;;;;;;28.87;17.60;;;4.10;99.90;;;;;;5013293;28;20177;-75
2022/12/08 06:00:49;;;;;;;29.27;15.40;;;4.30;99.90;;;;;;5012400;28;20204;-75
2022/12/08 06:03:17;;;;;;;27.97;15.23;;;4.20;99.90;;;;;;5011746;28;20267;-74
2022/12/08 06:05:45;;;;;;;29.57;15.57;;;4.20;99.90;;;;;;5012723;28;20545;-74
2022/12/08 06:08:11;;;;;;;24.80;14.23;;;4.20;99.90;;;;;;5012552;28;20181;-74
2022/12/08 06:10:42;;;;;;;25.50;15.33;;;4.00;99.90;;;;;;5013060;28;20192;-75
2022/12/08 06:13:07;;;;;;;23.40;14.67;;;4.10;99.90;;;;;;5011954;28;20208;-74
2022/12/08 06:15:37;;;;;;;27.47;15.73;;;4.00;99.90;;;;;;5011509;28;20181;-74
2022/12/08 06:18:05;;;;;;;26.17;14.40;;;4.20;99.90;;;;;;5013304;28;20153;-74
2022/12/08 06:20:32;;;;;;;23.70;15.00;;;4.30;99.90;;;;;;5011580;28;20228;-74
2022/12/08 06:22:58;;;;;;;24.67;14.67;;;4.30;99.90;;;;;;5013593;28;20154;-74
2022/12/08 06:25:24;;;;;;;25.60;14.83;;;4.30;99.90;;;;;;5011887;28;20503;-75
2022/12/08 06:27:52;;;;;;;22.30;14.07;;;4.30;99.90;;;;;;5013515;28;20161;-75
2022/12/08 06:30:19;;;;;;;26.73;13.43;;;4.40;99.90;;;;;;5013298;28;20200;-75
2022/12/08 06:32:46;;;;;;;20.83;12.80;;;4.50;99.90;;;;;;5013203;28;20169;-74
2022/12/08 06:35:14;;;;;;;23.47;12.73;;;4.40;99.90;;;;;;5012587;28;20181;-75
2022/12/08 06:37:43;;;;;;;25.70;14.00;;;4.10;99.90;;;;;;5013166;28;20534;-75
2022/12/08 06:40:09;;;;;;;19.07;12.33;;;4.20;99.90;;;;;;5011638;28;20224;-76
2022/12/08 06:42:45;;;;;;;20.87;12.73;;;4.10;99.90;;;;;;5007381;28;20220;-76
2022/12/08 06:45:14;;;;;;;22.50;12.97;;;3.90;99.90;;;;;;5011314;28;20215;-76
2022/12/08 06:47:45;;;;;;;25.40;12.97;;;3.90;99.90;;;;;;5011739;28;20241;-75
2022/12/08 06:50:14;;;;;;;23.20;13.97;;;4.00;99.90;;;;;;5011629;28;20623;-75
2022/12/08 06:52:44;;;;;;;26.60;12.73;;;4.10;99.90;;;;;;5041805;28;20189;-74
2022/12/08 06:55:14;;;;;;;19.53;12.00;;;4.30;99.90;;;;;;5012336;28;20169;-74
2022/12/08 06:57:43;;;;;;;18.77;12.80;;;4.10;99.90;;;;;;5011830;28;20792;-74
2022/12/08 07:00:11;;;;;;;22.83;13.07;;;4.20;99.90;;;;;;5011805;28;20589;-74
2022/12/08 07:02:41;;;;;;;25.90;13.83;;;4.30;99.90;;;;;;5012520;28;20176;-75
2022/12/08 07:05:06;;;;;;;27.13;14.30;;;4.20;99.90;;;;;;5012769;28;20300;-74
2022/12/08 07:07:35;;;;;;;23.60;13.53;;;4.20;99.90;;;;;;5012751;28;20864;-75
2022/12/08 07:10:04;;;;;;;21.00;12.00;;;4.40;99.90;;;;;;5011362;28;20177;-75
2022/12/08 07:12:31;;;;;;;21.67;12.70;;;4.50;99.90;;;;;;5012919;28;20186;-75
2022/12/08 07:14:57;;;;;;;20.40;12.50;;;4.40;99.90;;;;;;5011365;28;20634;-74
2022/12/08 07:17:26;;;;;;;21.37;12.67;;;4.30;99.90;;;;;;5011964;28;20256;-74
2022/12/08 07:19:53;;;;;;;25.80;13.37;;;4.50;99.90;;;;;;5015618;28;20189;-74
2022/12/08 07:22:19;;;;;;;26.10;13.70;;;4.50;99.90;;;;;;5017040;28;20165;-76
2022/12/08 07:24:50;;;;;;;24.17;13.73;;;4.50;99.90;;;;;;5016173;28;20182;-75
2022/12/08 07:27:16;;;;;;;23.63;12.83;;;4.50;99.90;;;;;;5016736;28;20241;-77
2022/12/08 07:29:42;;;;;;;28.63;13.93;;;4.50;99.90;;;;;;5015922;28;20196;-76
2022/12/08 07:32:16;;;;;;;19.83;10.93;;;4.40;99.90;;;;;;5016393;28;20165;-76
2022/12/08 07:34:46;;;;;;;26.63;13.20;;;4.10;99.90;;;;;;5015584;28;20681;-77
2022/12/08 07:37:17;;;;;;;23.47;12.83;;;4.30;99.90;;;;;;5014771;28;20219;-76
2022/12/08 07:39:50;;;;;;;23.17;12.73;;;4.40;99.90;;;;;;5015992;28;20197;-75
2022/12/08 07:42:30;;;;;;;23.00;12.67;;;4.50;99.90;;;;;;5016591;28;20201;-76
2022/12/08 07:44:57;;;;;;;22.70;12.60;;;4.40;99.90;;;;;;5015207;28;20257;-76
2022/12/08 07:47:22;;;;;;;22.17;12.70;;;4.40;99.90;;;;;;5014678;28;20176;-76
2022/12/08 07:49:51;;;;;;;24.83;13.53;;;4.60;99.90;;;;;;5014942;28;20173;-76
2022/12/08 07:52:18;;;;;;;21.73;12.30;;;4.60;99.90;;;;;;5014969;28;20561;-76
2022/12/08 07:54:46;;;;;;;21.97;13.43;;;4.70;99.90;;;;;;5016066;28;20611;-75
2022/12/08 07:57:13;;;;;;;27.30;13.63;;;4.70;99.90;;;;;;5016240;28;20223;-76
2022/12/08 07:59:39;;;;;;;20.20;12.53;;;4.50;99.90;;;;;;5015579;28;20188;-76
2022/12/08 08:02:05;;;;;;;26.57;13.53;;;4.40;99.90;;;;;;5015558;28;20239;-76
2022/12/08 08:04:32;;;;;;;22.87;13.17;;;4.20;99.90;;;;;;5013003;28;20185;-76
2022/12/08 08:07:01;;;;;;;22.37;13.60;;;4.20;99.90;;;;;;5013839;28;20165;-76
2022/12/08 08:09:27;;;;;;;23.50;12.67;;;4.40;99.90;;;;;;5013798;28;20181;-76
2022/12/08 08:11:53;;;;;;;27.90;13.10;;;4.60;99.90;;;;;;5013862;28;20538;-76
2022/12/08 08:14:19;;;;;;;23.77;12.90;;;4.80;99.90;;;;;;5014988;28;20172;-77
2022/12/08 08:16:46;;;;;;;23.77;13.13;;;4.80;99.90;;;;;;5013342;28;20193;-77
2022/12/08 08:19:12;;;;;;;23.70;13.50;;;4.90;99.90;;;;;;5014695;28;20154;-77
2022/12/08 08:21:39;;;;;;;21.77;12.63;;;4.80;99.90;;;;;;5013662;28;20182;-76
2022/12/08 08:24:06;;;;;;;27.27;13.20;;;4.80;99.90;;;;;;5013942;28;20693;-77
2022/12/08 08:26:31;;;;;;;21.43;11.60;;;4.60;99.90;;;;;;5012667;28;20185;-76
2022/12/08 08:28:57;;;;;;;22.37;12.97;;;4.40;99.90;;;;;;5013185;28;20192;-76
2022/12/08 08:31:24;;;;;;;20.97;12.83;;;4.40;99.90;;;;;;5012441;28;20227;-76
2022/12/08 08:33:52;;;;;;;24.93;13.53;;;4.50;99.90;;;;;;5013677;28;20303;-76
2022/12/08 08:36:18;;;;;;;23.17;12.40;;;4.40;99.90;;;;;;5012333;28;20174;-76
2022/12/08 08:38:45;;;;;;;30.10;13.43;;;4.40;99.90;;;;;;5013602;28;20548;-76
2022/12/08 08:41:16;;;;;;;23.80;13.60;;;4.50;99.90;;;;;;5014315;28;20658;-77
2022/12/08 08:43:42;;;;;;;23.90;12.70;;;4.70;99.90;;;;;;5014864;28;20261;-77
2022/12/08 08:46:09;;;;;;;23.47;13.03;;;4.50;99.90;;;;;;4996366;28;20670;-77
2022/12/08 08:48:35;;;;;;;26.20;14.43;;;4.50;99.90;;;;;;5029410;28;20626;-77
2022/12/08 08:51:12;;;;;;;22.57;13.07;;;4.50;99.90;;;;;;5012758;28;20169;-77
2022/12/08 08:53:38;;;;;;;25.90;14.90;;;4.60;99.90;;;;;;5014452;28;20644;-77
2022/12/08 08:56:11;;;;;;;25.90;13.10;;;4.70;99.90;;;;;;5013060;28;20181;-78
2022/12/08 08:58:40;;;;;;;28.57;14.63;;;4.80;99.90;;;;;;5012814;28;20177;-77
2022/12/08 09:01:17;;;;;;;25.23;13.80;;;4.70;99.90;;;;;;5012172;28;20242;-77
2022/12/08 09:03:44;;;;;;;28.33;13.70;;;4.60;99.90;;;;;;5014506;28;20300;-75
2022/12/08 09:06:14;;;;;;;27.60;14.43;;;4.50;99.90;;;;;;5012374;28;20611;-76
2022/12/08 09:08:47;;;;;;;25.83;14.43;;;4.50;99.90;;;;;;5012971;28;20165;-76
2022/12/08 09:11:13;;;;;;;25.67;13.47;;;4.50;99.90;;;;;;5013044;28;20195;-76
2022/12/08 09:13:39;;;;;;;25.30;13.33;;;4.30;99.90;;;;;;5013781;28;20634;-76
2022/12/08 09:16:07;;;;;;;26.07;13.70;;;4.20;99.90;;;;;;5014006;28;20193;-76
2022/12/08 09:18:39;;;;;;;31.43;13.97;;;4.10;99.90;;;;;;5013654;28;20197;-78
2022/12/08 09:21:15;;;;;;;28.13;13.73;;;4.20;99.90;;;;;;5012492;28;20244;-77
2022/12/08 09:23:42;;;;;;;24.07;13.73;;;4.40;99.90;;;;;;5009923;28;20185;-78
2022/12/08 09:26:09;;;;;;;28.07;13.73;;;4.50;99.90;;;;;;5013602;28;20165;-78
2022/12/08 09:28:36;;;;;;;27.47;13.83;;;4.40;99.90;;;;;;5012325;28;20229;-76
2022/12/08 09:31:04;;;;;;;22.70;13.03;;;4.50;99.90;;;;;;5012342;28;20675;-75
2022/12/08 09:33:32;;;;;;;22.37;12.73;;;4.70;99.90;;;;;;5013636;28;20564;-76
2022/12/08 09:36:02;;;;;;;23.93;12.77;;;4.70;99.90;;;;;;5013719;28;20196;-77
2022/12/08 09:38:31;;;;;;;24.27;13.00;;;4.60;99.90;;;;;;5011955;28;20188;-77
2022/12/08 09:40:58;;;;;;;22.30;13.17;;;4.80;99.90;;;;;;5012288;28;20193;-77
2022/12/08 09:43:43;;;;;;;23.07;12.80;;;4.80;99.90;;;;;;5011573;28;20524;-77
2022/12/08 09:46:13;;;;;;;26.10;13.43;;;4.70;99.90;;;;;;5012129;28;20584;-77
2022/12/08 09:48:46;;;;;;;27.43;13.47;;;4.80;99.90;;;;;;5010914;28;20180;-76
2022/12/08 09:51:16;;;;;;;27.27;14.20;;;4.70;99.90;;;;;;5012433;28;20172;-77
2022/12/08 09:53:50;;;;;;;29.17;13.90;;;4.80;99.90;;;;;;5013188;28;20264;-77
2022/12/08 09:56:21;;;;;;;26.53;13.77;;;4.80;99.90;;;;;;5010328;28;20212;-77
2022/12/08 09:59:03;;;;;;;29.57;13.07;;;4.70;99.90;;;;;;4992757;28;20658;-77
2022/12/08 10:01:37;;;;;;;26.20;13.40;;;4.90;99.90;;;;;;5007035;28;20190;-77
2022/12/08 10:04:03;;;;;;;23.73;11.20;;;4.90;99.90;;;;;;5011970;28;20209;-80
2022/12/08 10:06:36;;;;;;;28.87;12.93;;;4.90;99.90;;;;;;5011919;28;20537;-79
2022/12/08 10:09:09;;;;;;;23.17;12.67;;;4.70;99.90;;;;;;5011735;28;20591;-80
2022/12/08 10:11:52;;;;;;;28.00;14.57;;;4.80;99.90;;;;;;5006056;28;20638;-79
2022/12/08 10:14:38;;;;;;;31.03;14.00;;;4.90;99.90;;;;;;5013522;28;20157;-80
2022/12/08 10:17:20;;;;;;;29.27;14.17;;;5.00;99.90;;;;;;5010337;28;20192;-81
2022/12/08 10:19:49;;;;;;;30.67;12.47;;;5.00;99.90;;;;;;5008793;28;22049;-80
2022/12/08 10:22:23;;;;;;;24.20;13.37;;;5.00;99.90;;;;;;5012096;28;20228;-80
2022/12/08 10:25:04;;;;;;;25.90;11.20;;;5.10;99.90;;;;;;5011501;28;20165;-79
2022/12/08 10:27:33;;;;;;;21.90;11.20;;;5.30;99.90;;;;;;5009437;28;20193;-80
2022/12/08 10:29:59;;;;;;;25.37;12.03;;;5.40;99.90;;;;;;5010962;28;20214;-81
2022/12/08 10:32:33;;;;;;;27.83;11.60;;;5.60;99.90;;;;;;5011224;28;20229;-81
2022/12/08 10:35:12;;;;;;;23.13;12.60;;;5.50;99.90;;;;;;5008724;28;20175;-80
2022/12/08 10:37:38;;;;;;;24.57;9.97;;;5.70;99.90;;;;;;5007469;28;20185;-80
2022/12/08 10:40:07;;;;;;;18.00;9.50;;;5.60;99.90;;;;;;5011673;28;20650;-79
2022/12/08 10:42:45;;;;;;;14.07;8.93;;;5.60;99.90;;;;;;5010798;28;20187;-79
2022/12/08 10:45:27;;;;;;;23.77;10.47;;;6.00;99.90;;;;;;5011467;28;20257;-79
2022/12/08 10:48:02;;;;;;;17.83;9.73;;;6.30;99.90;;;;;;5010650;28;20565;-81
2022/12/08 10:50:43;;;;;;;17.53;9.30;;;6.30;99.90;;;;;;5010028;28;20168;-81
2022/12/08 10:53:27;;;;;;;18.77;10.50;;;6.20;99.90;;;;;;5011573;28;20257;-81
2022/12/08 10:56:01;;;;;;;20.63;10.40;;;6.50;99.90;;;;;;5011778;28;20540;-80
2022/12/08 10:58:55;;;;;;;20.50;9.40;;;6.80;99.90;;;;;;5010229;28;20333;-80
2022/12/08 11:01:31;;;;;;;15.77;9.10;;;6.90;99.90;;;;;;5009956;28;20216;-81
2022/12/08 11:04:00;;;;;;;16.73;9.20;;;6.90;99.90;;;;;;5012889;28;20177;-80
2022/12/08 11:06:31;;;;;;;22.40;9.27;;;7.10;99.90;;;;;;5009973;28;20616;-80
2022/12/08 11:09:01;;;;;;;18.97;8.90;;;7.00;99.90;;;;;;5011181;28;20180;-81
2022/12/08 11:11:51;;;;;;;16.80;8.97;;;6.80;99.90;;;;;;5012424;28;20219;-82
2022/12/08 11:14:22;;;;;;;14.97;8.77;;;6.70;99.90;;;;;;5012834;28;20177;-80
2022/12/08 11:16:53;;;;;;;17.23;9.00;;;6.90;99.90;;;;;;5004669;28;20333;-80
2022/12/08 11:19:20;;;;;;;20.47;9.93;;;7.60;99.90;;;;;;5011528;28;20716;-81
2022/12/08 11:21:46;;;;;;;18.73;8.80;;;8.50;99.90;;;;;;5011900;28;20208;-82
2022/12/08 11:24:26;;;;;;;15.10;7.93;;;8.90;99.90;;;;;;5013148;28;20260;-81
2022/12/08 11:27:05;;;;;;;18.40;8.90;;;9.10;99.90;;;;;;5011596;28;20635;-84
2022/12/08 11:29:34;;;;;;;18.70;8.33;;;9.40;99.90;;;;;;5011485;28;20182;-81
2022/12/08 11:32:06;;;;;;;18.23;8.70;;;8.90;99.90;;;;;;5010091;28;20320;-80
2022/12/08 11:34:46;;;;;;;17.63;8.50;;;9.00;99.90;;;;;;5011502;28;20169;-81
2022/12/08 11:37:30;;;;;;;15.87;8.10;;;9.20;99.90;;;;;;5012975;28;20157;-81
2022/12/08 11:39:59;;;;;;;14.70;7.60;;;9.40;99.90;;;;;;5012596;28;20204;-80
2022/12/08 11:42:31;;;;;;;13.50;7.70;;;9.00;99.90;;;;;;5011671;28;20169;-80
2022/12/08 11:45:02;;;;;;;16.40;9.00;;;8.60;99.90;;;;;;5011691;28;20243;-81
2022/12/08 11:47:36;;;;;;;16.20;8.27;;;8.50;99.90;;;;;;5012974;28;20161;-82
2022/12/08 11:50:24;;;;;;;17.07;9.10;;;8.30;99.90;;;;;;5012024;28;20193;-80
2022/12/08 11:52:51;;;;;;;14.40;8.00;;;8.50;99.90;;;;;;5011408;28;20204;-81
2022/12/08 11:55:42;;;;;;;16.63;8.00;;;8.90;99.90;;;;;;5011603;28;20177;-80
2022/12/08 11:58:35;;;;;;;18.30;7.93;;;9.30;99.90;;;;;;5011413;28;20271;-81
2022/12/08 12:01:01;;;;;;;14.90;8.10;;;9.70;99.90;;;;;;5011483;28;20201;-80
2022/12/08 12:03:31;;;;;;;16.23;8.30;;;10.20;99.90;;;;;;5012058;28;20171;-81
2022/12/08 12:06:00;;;;;;;14.73;8.33;;;11.00;99.90;;;;;;5014104;28;20176;-81
2022/12/08 12:08:40;;;;;;;16.93;7.07;;;11.20;99.90;;;;;;5015415;28;20184;-81
2022/12/08 12:14:38;;;;;;;14.20;7.13;;;11.30;99.90;;;;;;5016614;28;20308;-82
2022/12/08 12:17:23;;;;;;;11.83;7.17;;;10.90;99.90;;;;;;5016237;28;20167;-80
2022/12/08 12:19:51;;;;;;;15.70;7.73;;;10.60;99.90;;;;;;5015772;28;20173;-81
2022/12/08 12:22:21;;;;;;;17.37;7.13;;;10.20;99.90;;;;;;5014667;28;20169;-81
2022/12/08 12:24:50;;;;;;;13.27;7.10;;;9.90;99.90;;;;;;5014620;28;20540;-82
2022/12/08 12:27:26;;;;;;;16.27;7.07;;;9.60;99.90;;;;;;5014764;28;20304;-81
2022/12/08 12:29:58;;;;;;;13.27;7.33;;;9.10;99.90;;;;;;5014388;28;20244;-82
2022/12/08 12:32:26;;;;;;;15.10;7.67;;;9.00;99.90;;;;;;5014956;28;20207;-81
2022/12/08 12:34:57;;;;;;;12.17;7.20;;;9.10;99.90;;;;;;5015142;28;20630;-82
2022/12/08 12:37:36;;;;;;;18.37;7.77;;;8.80;99.90;;;;;;5014363;28;20181;-82
2022/12/08 12:40:06;;;;;;;13.67;7.57;;;8.30;99.90;;;;;;5014182;28;20290;-81
2022/12/08 12:42:32;;;;;;;13.50;7.00;;;8.20;99.90;;;;;;5014390;28;20633;-82
2022/12/08 12:45:16;;;;;;;11.13;6.93;;;8.10;99.90;;;;;;5014389;28;20183;-81
2022/12/08 12:47:54;;;;;;;13.37;6.77;;;8.00;99.90;;;;;;5013894;28;20176;-80
2022/12/08 12:50:42;;;;;;;11.20;6.43;;;7.70;99.90;;;;;;5014158;28;20165;-80
2022/12/08 12:53:14;;;;;;;10.63;7.27;;;7.50;99.90;;;;;;5014067;28;20184;-81
2022/12/08 12:55:53;;;;;;;18.97;7.77;;;7.40;99.90;;;;;;5014277;28;20187;-81
2022/12/08 12:58:31;;;;;;;11.70;6.37;;;7.40;99.90;;;;;;5014177;28;20183;-81
2022/12/08 13:01:11;;;;;;;12.03;6.67;;;7.50;99.90;;;;;;5014389;28;20211;-82
2022/12/08 13:03:50;;;;;;;16.03;6.93;;;7.30;99.90;;;;;;5014250;28;20303;-81
2022/12/08 13:06:31;;;;;;;10.37;6.60;;;7.40;99.90;;;;;;5014126;28;20656;-80